sensor_id;sensor_type;location;lat;lon;timestamp;pressure;altitude;pressure_sealevel;temperature;humidity
11343;BME280;5726;42.160;24.746;2023-02-21T00:02:32;99837.44;;;10.94;40.43
11343;BME280;5726;42.160;24.746;2023-02-21T00:05:15;99837.16;;;11.24;39.59
11343;BME280;5726;42.160;24.746;2023-02-21T00:07:59;99832.41;;;11.39;39.15
11343;BME280;5726;42.160;24.746;2023-02-21T00:10:43;99829.81;;;11.29;39.61
11343;BME280;5726;42.160;24.746;2023-02-21T00:13:27;99823.03;;;11.13;39.66
11343;BME280;5726;42.160;24.746;2023-02-21T00:16:17;99823.59;;;11.10;39.88
11343;BME280;5726;42.160;24.746;2023-02-21T00:19:02;99831.94;;;11.32;38.97
11343;BME280;5726;42.160;24.746;2023-02-21T00:21:46;99835.44;;;11.33;38.95
11343;BME280;5726;42.160;24.746;2023-02-21T00:24:29;99837.41;;;11.50;38.67
11343;BME280;5726;42.160;24.746;2023-02-21T00:27:14;99822.03;;;11.56;38.75
11343;BME280;5726;42.160;24.746;2023-02-21T00:29:58;99827.91;;;11.35;38.87
11343;BME280;5726;42.160;24.746;2023-02-21T00:32:42;99821.53;;;11.54;39.09
11343;BME280;5726;42.160;24.746;2023-02-21T00:35:25;99809.19;;;11.53;38.64
11343;BME280;5726;42.160;24.746;2023-02-21T00:38:10;99808.31;;;11.34;39.01
11343;BME280;5726;42.160;24.746;2023-02-21T00:40:54;99798.75;;;11.23;39.13
11343;BME280;5726;42.160;24.746;2023-02-21T00:43:38;99802.88;;;11.16;39.09
11343;BME280;5726;42.160;24.746;2023-02-21T00:46:22;99820.13;;;11.33;38.64
11343;BME280;5726;42.160;24.746;2023-02-21T00:49:06;99807.44;;;11.15;39.01
11343;BME280;5726;42.160;24.746;2023-02-21T00:51:50;99803.56;;;11.26;38.39
11343;BME280;5726;42.160;24.746;2023-02-21T00:54:35;99792.06;;;11.49;37.91
11343;BME280;5726;42.160;24.746;2023-02-21T00:57:19;99789.97;;;11.64;37.33
11343;BME280;5726;42.160;24.746;2023-02-21T01:00:05;99785.09;;;11.48;37.84
11343;BME280;5726;42.160;24.746;2023-02-21T01:02:49;99782.75;;;11.37;38.08
11343;BME280;5726;42.160;24.746;2023-02-21T01:05:34;99770.44;;;11.36;38.07
11343;BME280;5726;42.160;24.746;2023-02-21T01:08:18;99772.88;;;11.32;38.15
11343;BME280;5726;42.160;24.746;2023-02-21T01:11:02;99773.84;;;11.41;38.17
11343;BME280;5726;42.160;24.746;2023-02-21T01:13:46;99761.13;;;11.51;37.70
11343;BME280;5726;42.160;24.746;2023-02-21T01:16:31;99762.16;;;11.32;38.00
11343;BME280;5726;42.160;24.746;2023-02-21T01:19:16;99755.69;;;11.33;37.98
11343;BME280;5726;42.160;24.746;2023-02-21T01:22:01;99750.78;;;11.40;37.65
11343;BME280;5726;42.160;24.746;2023-02-21T01:24:48;99743.81;;;11.62;37.32
11343;BME280;5726;42.160;24.746;2023-02-21T01:27:32;99742.13;;;11.48;37.53
11343;BME280;5726;42.160;24.746;2023-02-21T01:30:16;99737.66;;;11.39;38.41
11343;BME280;5726;42.160;24.746;2023-02-21T01:33:00;99727.03;;;11.52;37.51
11343;BME280;5726;42.160;24.746;2023-02-21T01:35:44;99721.81;;;11.60;37.27
11343;BME280;5726;42.160;24.746;2023-02-21T01:38:28;99716.38;;;11.65;37.53
11343;BME280;5726;42.160;24.746;2023-02-21T01:41:15;99710.66;;;11.53;37.87
11343;BME280;5726;42.160;24.746;2023-02-21T01:44:05;99721.09;;;11.55;37.94
11343;BME280;5726;42.160;24.746;2023-02-21T01:46:49;99728.88;;;11.33;38.49
11343;BME280;5726;42.160;24.746;2023-02-21T01:49:36;99708.53;;;11.27;38.66
11343;BME280;5726;42.160;24.746;2023-02-21T01:52:21;99718.88;;;11.15;39.18
11343;BME280;5726;42.160;24.746;2023-02-21T01:55:05;99722.81;;;10.99;39.61
11343;BME280;5726;42.160;24.746;2023-02-21T01:57:50;99719.28;;;11.27;38.66
11343;BME280;5726;42.160;24.746;2023-02-21T02:00:36;99717.91;;;11.30;38.89
11343;BME280;5726;42.160;24.746;2023-02-21T02:03:20;99716.09;;;11.25;39.04
11343;BME280;5726;42.160;24.746;2023-02-21T02:06:09;99695.50;;;11.39;38.70
11343;BME280;5726;42.160;24.746;2023-02-21T02:08:53;99698.38;;;11.66;38.24
11343;BME280;5726;42.160;24.746;2023-02-21T02:17:05;99687.53;;;11.34;38.83
11343;BME280;5726;42.160;24.746;2023-02-21T02:25:38;99669.25;;;10.95;39.40
11343;BME280;5726;42.160;24.746;2023-02-21T02:45:36;99662.06;;;11.08;38.07
11343;BME280;5726;42.160;24.746;2023-02-21T02:48:59;99652.66;;;10.93;38.45
11343;BME280;5726;42.160;24.746;2023-02-21T02:51:16;99646.06;;;11.22;37.94
11343;BME280;5726;42.160;24.746;2023-02-21T02:53:42;99637.88;;;11.13;38.13
11343;BME280;5726;42.160;24.746;2023-02-21T02:56:13;99640.50;;;11.18;38.16
11343;BME280;5726;42.160;24.746;2023-02-21T02:58:47;99643.81;;;11.10;38.26
11343;BME280;5726;42.160;24.746;2023-02-21T03:09:12;99637.59;;;11.33;37.79
11343;BME280;5726;42.160;24.746;2023-02-21T03:11:49;99625.41;;;11.59;37.48
11343;BME280;5726;42.160;24.746;2023-02-21T03:14:19;99630.88;;;11.54;37.76
11343;BME280;5726;42.160;24.746;2023-02-21T03:16:50;99635.09;;;11.60;37.50
11343;BME280;5726;42.160;24.746;2023-02-21T03:19:25;99640.59;;;11.50;37.60
11343;BME280;5726;42.160;24.746;2023-02-21T03:21:59;99637.97;;;11.63;37.44
11343;BME280;5726;42.160;24.746;2023-02-21T03:24:26;99637.03;;;11.54;37.43
11343;BME280;5726;42.160;24.746;2023-02-21T03:26:59;99637.97;;;11.45;37.84
11343;BME280;5726;42.160;24.746;2023-02-21T03:29:26;99642.06;;;11.61;37.46
11343;BME280;5726;42.160;24.746;2023-02-21T03:32:00;99644.75;;;11.61;37.78
11343;BME280;5726;42.160;24.746;2023-02-21T03:34:40;99641.81;;;11.57;38.00
11343;BME280;5726;42.160;24.746;2023-02-21T03:37:08;99639.03;;;11.44;38.11
11343;BME280;5726;42.160;24.746;2023-02-21T03:39:34;99654.66;;;11.42;37.97
11343;BME280;5726;42.160;24.746;2023-02-21T03:41:59;99649.38;;;11.37;38.42
11343;BME280;5726;42.160;24.746;2023-02-21T03:44:25;99652.94;;;11.51;37.77
11343;BME280;5726;42.160;24.746;2023-02-21T03:46:50;99657.47;;;11.32;38.02
11343;BME280;5726;42.160;24.746;2023-02-21T03:49:15;99656.38;;;11.33;37.98
11343;BME280;5726;42.160;24.746;2023-02-21T03:51:41;99675.00;;;11.06;38.50
11343;BME280;5726;42.160;24.746;2023-02-21T03:54:06;99671.63;;;11.38;38.17
11343;BME280;5726;42.160;24.746;2023-02-21T03:56:32;99669.88;;;11.28;38.10
11343;BME280;5726;42.160;24.746;2023-02-21T03:58:57;99665.88;;;11.44;37.97
11343;BME280;5726;42.160;24.746;2023-02-21T04:01:23;99674.53;;;11.41;38.13
11343;BME280;5726;42.160;24.746;2023-02-21T04:03:48;99668.75;;;11.52;37.71
11343;BME280;5726;42.160;24.746;2023-02-21T04:06:14;99660.28;;;11.64;37.73
11343;BME280;5726;42.160;24.746;2023-02-21T04:08:40;99656.88;;;11.35;38.38
11343;BME280;5726;42.160;24.746;2023-02-21T04:11:05;99649.00;;;11.25;38.69
11343;BME280;5726;42.160;24.746;2023-02-21T04:13:31;99658.78;;;11.35;38.49
11343;BME280;5726;42.160;24.746;2023-02-21T04:15:56;99643.09;;;11.23;38.78
11343;BME280;5726;42.160;24.746;2023-02-21T04:18:21;99644.19;;;11.22;38.96
11343;BME280;5726;42.160;24.746;2023-02-21T04:20:47;99649.50;;;11.27;38.99
11343;BME280;5726;42.160;24.746;2023-02-21T04:23:17;99653.25;;;11.26;38.31
11343;BME280;5726;42.160;24.746;2023-02-21T04:25:43;99653.34;;;11.40;38.40
11343;BME280;5726;42.160;24.746;2023-02-21T04:28:09;99656.00;;;11.40;38.25
11343;BME280;5726;42.160;24.746;2023-02-21T04:30:34;99661.16;;;11.18;38.74
11343;BME280;5726;42.160;24.746;2023-02-21T04:32:59;99657.84;;;11.44;38.34
11343;BME280;5726;42.160;24.746;2023-02-21T04:35:25;99676.13;;;11.24;38.71
11343;BME280;5726;42.160;24.746;2023-02-21T04:37:50;99662.41;;;11.43;38.19
11343;BME280;5726;42.160;24.746;2023-02-21T04:40:16;99668.06;;;11.42;38.26
11343;BME280;5726;42.160;24.746;2023-02-21T04:42:41;99669.63;;;11.48;38.21
11343;BME280;5726;42.160;24.746;2023-02-21T04:45:07;99676.84;;;11.29;38.46
11343;BME280;5726;42.160;24.746;2023-02-21T04:47:32;99672.53;;;11.51;38.19
11343;BME280;5726;42.160;24.746;2023-02-21T04:49:58;99674.47;;;11.46;38.26
11343;BME280;5726;42.160;24.746;2023-02-21T04:52:23;99677.97;;;11.83;37.56
11343;BME280;5726;42.160;24.746;2023-02-21T04:54:48;99681.16;;;11.48;37.76
11343;BME280;5726;42.160;24.746;2023-02-21T04:57:15;99681.00;;;11.40;37.65
11343;BME280;5726;42.160;24.746;2023-02-21T04:59:40;99690.69;;;11.59;37.68
11343;BME280;5726;42.160;24.746;2023-02-21T05:02:07;99685.78;;;11.43;37.99
11343;BME280;5726;42.160;24.746;2023-02-21T05:04:34;99677.25;;;11.78;37.25
11343;BME280;5726;42.160;24.746;2023-02-21T05:07:00;99682.63;;;11.78;36.91
11343;BME280;5726;42.160;24.746;2023-02-21T05:09:26;99678.59;;;11.75;36.88
11343;BME280;5726;42.160;24.746;2023-02-21T05:11:51;99677.69;;;11.48;37.57
11343;BME280;5726;42.160;24.746;2023-02-21T05:14:17;99675.38;;;11.60;37.21
11343;BME280;5726;42.160;24.746;2023-02-21T05:16:43;99682.75;;;11.68;37.44
11343;BME280;5726;42.160;24.746;2023-02-21T05:19:09;99682.47;;;11.88;36.57
11343;BME280;5726;42.160;24.746;2023-02-21T05:21:35;99695.66;;;12.02;36.41
11343;BME280;5726;42.160;24.746;2023-02-21T05:24:05;99693.22;;;11.88;36.51
11343;BME280;5726;42.160;24.746;2023-02-21T05:26:36;99698.38;;;11.66;36.88
11343;BME280;5726;42.160;24.746;2023-02-21T05:29:04;99699.38;;;11.51;37.46
11343;BME280;5726;42.160;24.746;2023-02-21T05:31:29;99698.94;;;11.63;37.33
11343;BME280;5726;42.160;24.746;2023-02-21T05:33:56;99694.81;;;11.52;37.73
11343;BME280;5726;42.160;24.746;2023-02-21T05:36:21;99688.94;;;11.68;37.40
11343;BME280;5726;42.160;24.746;2023-02-21T05:38:52;99708.63;;;11.64;37.53
11343;BME280;5726;42.160;24.746;2023-02-21T05:41:19;99697.22;;;11.53;37.71
11343;BME280;5726;42.160;24.746;2023-02-21T05:43:46;99711.69;;;11.34;38.33
11343;BME280;5726;42.160;24.746;2023-02-21T05:46:29;99704.53;;;11.48;37.86
11343;BME280;5726;42.160;24.746;2023-02-21T05:48:56;99705.41;;;11.62;37.84
11343;BME280;5726;42.160;24.746;2023-02-21T05:51:22;99709.38;;;11.46;38.23
11343;BME280;5726;42.160;24.746;2023-02-21T05:53:48;99707.72;;;11.50;38.50
11343;BME280;5726;42.160;24.746;2023-02-21T05:56:15;99708.31;;;11.84;37.81
11343;BME280;5726;42.160;24.746;2023-02-21T05:58:41;99710.50;;;11.82;37.76
11343;BME280;5726;42.160;24.746;2023-02-21T06:01:06;99719.69;;;11.94;37.56
11343;BME280;5726;42.160;24.746;2023-02-21T06:03:32;99717.47;;;12.01;37.74
11343;BME280;5726;42.160;24.746;2023-02-21T06:05:58;99709.97;;;11.98;37.69
11343;BME280;5726;42.160;24.746;2023-02-21T06:08:23;99710.19;;;12.01;37.51
11343;BME280;5726;42.160;24.746;2023-02-21T06:10:49;99705.00;;;12.05;37.42
11343;BME280;5726;42.160;24.746;2023-02-21T06:13:15;99709.66;;;12.18;37.29
11343;BME280;5726;42.160;24.746;2023-02-21T06:15:40;99700.16;;;11.89;37.83
11343;BME280;5726;42.160;24.746;2023-02-21T06:18:05;99706.19;;;11.99;38.09
11343;BME280;5726;42.160;24.746;2023-02-21T06:20:31;99716.28;;;12.39;37.55
11343;BME280;5726;42.160;24.746;2023-02-21T06:22:56;99717.69;;;12.49;37.48
11343;BME280;5726;42.160;24.746;2023-02-21T06:25:22;99719.31;;;12.64;37.13
11343;BME280;5726;42.160;24.746;2023-02-21T06:27:48;99717.06;;;13.51;68.42
11343;BME280;5726;42.160;24.746;2023-02-21T06:30:13;99714.47;;;14.38;54.57
11343;BME280;5726;42.160;24.746;2023-02-21T06:32:40;99705.19;;;14.82;48.19
11343;BME280;5726;42.160;24.746;2023-02-21T06:35:06;99718.06;;;14.77;37.47
11343;BME280;5726;42.160;24.746;2023-02-21T06:37:32;99711.00;;;14.68;37.17
11343;BME280;5726;42.160;24.746;2023-02-21T06:39:57;99709.75;;;14.65;36.92
11343;BME280;5726;42.160;24.746;2023-02-21T06:42:22;99706.13;;;14.48;38.50
11343;BME280;5726;42.160;24.746;2023-02-21T06:44:48;99702.69;;;14.86;37.12
11343;BME280;5726;42.160;24.746;2023-02-21T06:47:14;99698.75;;;14.92;35.91
11343;BME280;5726;42.160;24.746;2023-02-21T06:49:40;99692.22;;;14.84;35.62
11343;BME280;5726;42.160;24.746;2023-02-21T06:52:07;99683.47;;;14.49;35.13
11343;BME280;5726;42.160;24.746;2023-02-21T06:54:33;99682.63;;;14.18;35.59
11343;BME280;5726;42.160;24.746;2023-02-21T06:56:58;99689.19;;;14.26;36.58
11343;BME280;5726;42.160;24.746;2023-02-21T06:59:26;99699.84;;;14.09;36.09
11343;BME280;5726;42.160;24.746;2023-02-21T07:01:52;99695.44;;;13.99;36.09
11343;BME280;5726;42.160;24.746;2023-02-21T07:04:17;99703.22;;;14.01;36.39
11343;BME280;5726;42.160;24.746;2023-02-21T07:06:42;99695.50;;;13.86;36.45
11343;BME280;5726;42.160;24.746;2023-02-21T07:09:08;99708.44;;;13.97;36.45
11343;BME280;5726;42.160;24.746;2023-02-21T07:11:34;99704.28;;;13.91;36.56
11343;BME280;5726;42.160;24.746;2023-02-21T07:14:00;99688.19;;;14.00;36.83
11343;BME280;5726;42.160;24.746;2023-02-21T07:16:26;99690.19;;;13.94;36.96
11343;BME280;5726;42.160;24.746;2023-02-21T07:18:52;99680.16;;;13.86;37.09
11343;BME280;5726;42.160;24.746;2023-02-21T07:21:19;99682.97;;;14.03;36.70
11343;BME280;5726;42.160;24.746;2023-02-21T07:23:46;99667.19;;;14.10;36.88
11343;BME280;5726;42.160;24.746;2023-02-21T07:26:12;99666.06;;;14.11;37.01
11343;BME280;5726;42.160;24.746;2023-02-21T07:28:38;99670.19;;;14.09;37.15
11343;BME280;5726;42.160;24.746;2023-02-21T07:31:03;99670.69;;;14.11;37.66
11343;BME280;5726;42.160;24.746;2023-02-21T07:33:29;99676.28;;;14.01;37.89
11343;BME280;5726;42.160;24.746;2023-02-21T07:35:54;99666.19;;;14.28;37.61
11343;BME280;5726;42.160;24.746;2023-02-21T07:38:28;99670.75;;;14.19;37.07
11343;BME280;5726;42.160;24.746;2023-02-21T07:40:55;99669.50;;;14.25;37.16
11343;BME280;5726;42.160;24.746;2023-02-21T07:43:21;99662.66;;;14.19;37.12
11343;BME280;5726;42.160;24.746;2023-02-21T07:45:46;99666.38;;;14.10;37.12
11343;BME280;5726;42.160;24.746;2023-02-21T07:48:11;99666.31;;;14.23;36.67
11343;BME280;5726;42.160;24.746;2023-02-21T07:50:41;99658.84;;;14.20;36.29
11343;BME280;5726;42.160;24.746;2023-02-21T07:53:07;99661.41;;;14.25;36.21
11343;BME280;5726;42.160;24.746;2023-02-21T07:55:33;99654.88;;;14.18;36.40
11343;BME280;5726;42.160;24.746;2023-02-21T07:57:59;99663.22;;;14.38;36.22
11343;BME280;5726;42.160;24.746;2023-02-21T08:00:24;99655.50;;;14.45;35.75
11343;BME280;5726;42.160;24.746;2023-02-21T08:02:50;99656.47;;;14.49;35.91
11343;BME280;5726;42.160;24.746;2023-02-21T08:05:17;99651.16;;;14.66;35.64
11343;BME280;5726;42.160;24.746;2023-02-21T08:07:43;99647.41;;;14.83;35.48
11343;BME280;5726;42.160;24.746;2023-02-21T08:10:09;99640.13;;;14.92;35.57
11343;BME280;5726;42.160;24.746;2023-02-21T08:12:35;99649.22;;;14.96;35.52
11343;BME280;5726;42.160;24.746;2023-02-21T08:15:00;99663.75;;;15.17;36.77
11343;BME280;5726;42.160;24.746;2023-02-21T08:17:26;99655.38;;;15.35;39.01
11343;BME280;5726;42.160;24.746;2023-02-21T08:19:51;99647.41;;;15.81;36.05
11343;BME280;5726;42.160;24.746;2023-02-21T08:22:17;99649.13;;;16.19;35.33
11343;BME280;5726;42.160;24.746;2023-02-21T08:24:43;99644.84;;;16.18;35.52
11343;BME280;5726;42.160;24.746;2023-02-21T08:27:08;99640.25;;;16.10;34.97
11343;BME280;5726;42.160;24.746;2023-02-21T08:29:34;99635.28;;;16.37;33.90
11343;BME280;5726;42.160;24.746;2023-02-21T08:31:59;99635.94;;;16.72;33.77
11343;BME280;5726;42.160;24.746;2023-02-21T08:34:25;99628.72;;;17.41;32.54
11343;BME280;5726;42.160;24.746;2023-02-21T08:36:53;99629.19;;;17.84;32.09
11343;BME280;5726;42.160;24.746;2023-02-21T08:39:19;99621.13;;;18.28;31.16
11343;BME280;5726;42.160;24.746;2023-02-21T08:41:45;99621.81;;;18.25;31.04
11343;BME280;5726;42.160;24.746;2023-02-21T08:44:16;99604.84;;;18.28;31.16
11343;BME280;5726;42.160;24.746;2023-02-21T08:46:41;99603.19;;;18.47;29.84
11343;BME280;5726;42.160;24.746;2023-02-21T08:49:08;99599.47;;;18.52;29.73
11343;BME280;5726;42.160;24.746;2023-02-21T08:51:34;99599.91;;;18.66;30.01
11343;BME280;5726;42.160;24.746;2023-02-21T08:54:00;99600.16;;;18.72;29.61
11343;BME280;5726;42.160;24.746;2023-02-21T08:56:26;99595.38;;;18.46;29.43
11343;BME280;5726;42.160;24.746;2023-02-21T08:58:52;99590.16;;;18.65;29.17
11343;BME280;5726;42.160;24.746;2023-02-21T09:01:18;99588.03;;;18.70;29.45
11343;BME280;5726;42.160;24.746;2023-02-21T09:03:44;99588.81;;;18.82;29.65
11343;BME280;5726;42.160;24.746;2023-02-21T09:06:09;99597.78;;;19.18;28.83
11343;BME280;5726;42.160;24.746;2023-02-21T09:08:35;99577.03;;;19.26;28.44
11343;BME280;5726;42.160;24.746;2023-02-21T09:11:02;99586.13;;;19.06;28.88
11343;BME280;5726;42.160;24.746;2023-02-21T09:13:28;99575.00;;;19.23;28.96
11343;BME280;5726;42.160;24.746;2023-02-21T09:15:55;99579.72;;;19.38;29.24
11343;BME280;5726;42.160;24.746;2023-02-21T09:18:21;99570.91;;;19.68;28.67
11343;BME280;5726;42.160;24.746;2023-02-21T09:20:47;99569.72;;;19.42;28.77
11343;BME280;5726;42.160;24.746;2023-02-21T09:23:23;99571.41;;;19.07;29.20
11343;BME280;5726;42.160;24.746;2023-02-21T09:25:49;99567.16;;;19.33;29.04
11343;BME280;5726;42.160;24.746;2023-02-21T09:28:16;99555.34;;;19.02;29.14
11343;BME280;5726;42.160;24.746;2023-02-21T09:30:41;99553.94;;;19.20;29.31
11343;BME280;5726;42.160;24.746;2023-02-21T09:33:08;99557.47;;;19.48;29.21
11343;BME280;5726;42.160;24.746;2023-02-21T09:35:33;99542.97;;;19.56;28.97
11343;BME280;5726;42.160;24.746;2023-02-21T09:37:59;99551.03;;;19.79;28.72
11343;BME280;5726;42.160;24.746;2023-02-21T09:45:58;99542.81;;;19.91;28.17
11343;BME280;5726;42.160;24.746;2023-02-21T09:48:25;99532.84;;;20.11;27.96
11343;BME280;5726;42.160;24.746;2023-02-21T09:50:54;99542.22;;;20.13;27.87
11343;BME280;5726;42.160;24.746;2023-02-21T09:53:33;99529.00;;;20.27;27.86
11343;BME280;5726;42.160;24.746;2023-02-21T09:56:04;99533.13;;;20.21;27.68
11343;BME280;5726;42.160;24.746;2023-02-21T09:58:30;99513.72;;;20.22;27.84
11343;BME280;5726;42.160;24.746;2023-02-21T10:01:02;99511.84;;;20.26;27.77
11343;BME280;5726;42.160;24.746;2023-02-21T10:04:16;99499.97;;;20.34;27.31
11343;BME280;5726;42.160;24.746;2023-02-21T10:09:20;99495.00;;;20.21;26.54
11343;BME280;5726;42.160;24.746;2023-02-21T10:17:02;99468.16;;;20.69;26.35
11343;BME280;5726;42.160;24.746;2023-02-21T10:19:33;99473.63;;;20.69;26.35
11343;BME280;5726;42.160;24.746;2023-02-21T10:22:03;99460.09;;;20.91;26.28
11343;BME280;5726;42.160;24.746;2023-02-21T10:24:36;99451.44;;;21.05;26.48
11343;BME280;5726;42.160;24.746;2023-02-21T10:27:29;99461.97;;;21.06;26.04
11343;BME280;5726;42.160;24.746;2023-02-21T10:32:24;99449.63;;;20.93;26.58
11343;BME280;5726;42.160;24.746;2023-02-21T10:34:51;99447.41;;;20.64;26.70
11343;BME280;5726;42.160;24.746;2023-02-21T10:40:04;99436.16;;;20.66;26.75
11343;BME280;5726;42.160;24.746;2023-02-21T10:42:44;99440.09;;;20.68;26.55
11343;BME280;5726;42.160;24.746;2023-02-21T10:45:15;99428.88;;;20.89;26.13
11343;BME280;5726;42.160;24.746;2023-02-21T10:58:56;99418.22;;;21.18;25.77
11343;BME280;5726;42.160;24.746;2023-02-21T11:04:02;99401.31;;;21.31;25.25
11343;BME280;5726;42.160;24.746;2023-02-21T11:09:00;99399.66;;;21.46;25.76
11343;BME280;5726;42.160;24.746;2023-02-21T11:11:40;99394.75;;;21.55;25.11
11343;BME280;5726;42.160;24.746;2023-02-21T11:14:24;99394.00;;;21.54;25.05
11343;BME280;5726;42.160;24.746;2023-02-21T11:22:10;99375.13;;;21.90;24.70
11343;BME280;5726;42.160;24.746;2023-02-21T11:25:05;99375.00;;;22.06;24.40
11343;BME280;5726;42.160;24.746;2023-02-21T11:27:34;99366.53;;;22.14;24.20
11343;BME280;5726;42.160;24.746;2023-02-21T11:30:08;99360.16;;;22.07;23.90
11343;BME280;5726;42.160;24.746;2023-02-21T11:32:37;99352.53;;;21.93;24.45
11343;BME280;5726;42.160;24.746;2023-02-21T11:37:33;99354.53;;;21.96;24.43
11343;BME280;5726;42.160;24.746;2023-02-21T11:39:59;99337.53;;;22.06;23.52
11343;BME280;5726;42.160;24.746;2023-02-21T11:42:32;99316.63;;;21.91;23.89
11343;BME280;5726;42.160;24.746;2023-02-21T11:45:26;99329.34;;;22.32;23.06
11343;BME280;5726;42.160;24.746;2023-02-21T11:48:02;99325.44;;;22.29;22.94
11343;BME280;5726;42.160;24.746;2023-02-21T11:50:33;99313.78;;;22.32;22.97
11343;BME280;5726;42.160;24.746;2023-02-21T11:55:41;99310.00;;;22.44;22.49
11343;BME280;5726;42.160;24.746;2023-02-21T11:58:59;99298.25;;;22.40;22.15
11343;BME280;5726;42.160;24.746;2023-02-21T12:04:39;99282.44;;;22.56;22.21
11343;BME280;5726;42.160;24.746;2023-02-21T12:07:18;99272.63;;;22.51;22.18
11343;BME280;5726;42.160;24.746;2023-02-21T12:39:00;99221.41;;;22.81;21.47
11343;BME280;5726;42.160;24.746;2023-02-21T12:45:06;99218.31;;;22.82;20.26
11343;BME280;5726;42.160;24.746;2023-02-21T12:50:24;99224.69;;;22.93;19.93
11343;BME280;5726;42.160;24.746;2023-02-21T12:53:01;99225.38;;;22.87;19.83
11343;BME280;5726;42.160;24.746;2023-02-21T12:55:39;99208.22;;;22.90;19.80
11343;BME280;5726;42.160;24.746;2023-02-21T13:00:57;99205.22;;;22.98;19.46
11343;BME280;5726;42.160;24.746;2023-02-21T13:06:18;99215.34;;;22.94;19.65
11343;BME280;5726;42.160;24.746;2023-02-21T13:09:09;99221.00;;;22.75;19.78
11343;BME280;5726;42.160;24.746;2023-02-21T13:14:10;99222.50;;;22.69;19.81
11343;BME280;5726;42.160;24.746;2023-02-21T13:16:37;99210.44;;;22.74;19.60
11343;BME280;5726;42.160;24.746;2023-02-21T13:19:06;99196.91;;;22.91;19.65
11343;BME280;5726;42.160;24.746;2023-02-21T13:30:37;99195.09;;;22.66;19.36
11343;BME280;5726;42.160;24.746;2023-02-21T13:33:03;99191.38;;;22.48;19.78
11343;BME280;5726;42.160;24.746;2023-02-21T13:35:33;99201.88;;;22.43;20.09
11343;BME280;5726;42.160;24.746;2023-02-21T13:38:00;99199.97;;;22.47;20.18
11343;BME280;5726;42.160;24.746;2023-02-21T13:41:02;99174.56;;;22.43;20.07
11343;BME280;5726;42.160;24.746;2023-02-21T13:43:31;99185.06;;;22.41;20.25
11343;BME280;5726;42.160;24.746;2023-02-21T13:51:52;99184.50;;;22.25;20.44
11343;BME280;5726;42.160;24.746;2023-02-21T13:54:22;99180.34;;;22.38;20.31
11343;BME280;5726;42.160;24.746;2023-02-21T13:56:48;99180.41;;;22.41;20.55
11343;BME280;5726;42.160;24.746;2023-02-21T13:59:32;99181.25;;;22.49;20.73
11343;BME280;5726;42.160;24.746;2023-02-21T14:02:26;99184.44;;;22.54;20.75
11343;BME280;5726;42.160;24.746;2023-02-21T14:07:46;99179.03;;;22.58;21.04
11343;BME280;5726;42.160;24.746;2023-02-21T14:10:22;99158.75;;;22.62;21.15
11343;BME280;5726;42.160;24.746;2023-02-21T14:12:54;99170.28;;;22.81;20.82
11343;BME280;5726;42.160;24.746;2023-02-21T14:15:21;99150.31;;;22.77;20.17
11343;BME280;5726;42.160;24.746;2023-02-21T14:17:47;99158.31;;;22.57;20.61
11343;BME280;5726;42.160;24.746;2023-02-21T14:20:16;99150.25;;;22.70;20.50
11343;BME280;5726;42.160;24.746;2023-02-21T14:22:44;99158.03;;;22.68;20.28
11343;BME280;5726;42.160;24.746;2023-02-21T14:25:17;99147.84;;;22.65;20.38
11343;BME280;5726;42.160;24.746;2023-02-21T14:27:43;99152.69;;;22.82;20.16
11343;BME280;5726;42.160;24.746;2023-02-21T14:32:43;99147.09;;;22.65;20.61
11343;BME280;5726;42.160;24.746;2023-02-21T14:37:44;99139.78;;;22.79;20.49
11343;BME280;5726;42.160;24.746;2023-02-21T14:56:47;99147.88;;;22.29;21.36
11343;BME280;5726;42.160;24.746;2023-02-21T15:02:28;99140.28;;;22.16;21.71
11343;BME280;5726;42.160;24.746;2023-02-21T15:05:02;99139.84;;;22.14;21.63
11343;BME280;5726;42.160;24.746;2023-02-21T15:07:43;99153.94;;;22.16;21.99
11343;BME280;5726;42.160;24.746;2023-02-21T15:10:29;99153.31;;;22.00;22.59
11343;BME280;5726;42.160;24.746;2023-02-21T15:12:57;99155.81;;;22.12;22.18
11343;BME280;5726;42.160;24.746;2023-02-21T15:15:28;99153.50;;;22.14;22.43
11343;BME280;5726;42.160;24.746;2023-02-21T15:18:24;99153.63;;;22.21;22.62
11343;BME280;5726;42.160;24.746;2023-02-21T15:23:28;99151.19;;;22.16;22.37
11343;BME280;5726;42.160;24.746;2023-02-21T15:28:42;99142.75;;;21.66;22.87
11343;BME280;5726;42.160;24.746;2023-02-21T15:31:09;99142.13;;;21.79;22.81
11343;BME280;5726;42.160;24.746;2023-02-21T15:33:39;99153.19;;;21.60;22.88
11343;BME280;5726;42.160;24.746;2023-02-21T15:38:55;99152.84;;;21.40;23.15
11343;BME280;5726;42.160;24.746;2023-02-21T15:41:44;99160.44;;;21.50;22.82
11343;BME280;5726;42.160;24.746;2023-02-21T15:44:26;99162.41;;;21.27;23.21
11343;BME280;5726;42.160;24.746;2023-02-21T15:49:26;99155.47;;;21.33;23.51
11343;BME280;5726;42.160;24.746;2023-02-21T15:51:52;99167.00;;;21.23;23.68
11343;BME280;5726;42.160;24.746;2023-02-21T15:59:30;99164.16;;;21.16;23.28
11343;BME280;5726;42.160;24.746;2023-02-21T16:04:43;99162.09;;;21.32;23.36
11343;BME280;5726;42.160;24.746;2023-02-21T16:07:20;99164.16;;;21.16;23.96
11343;BME280;5726;42.160;24.746;2023-02-21T16:09:49;99167.06;;;21.04;23.90
11343;BME280;5726;42.160;24.746;2023-02-21T16:17:35;99172.00;;;20.95;24.42
11343;BME280;5726;42.160;24.746;2023-02-21T16:20:22;99180.47;;;20.90;24.11
11343;BME280;5726;42.160;24.746;2023-02-21T16:28:31;99186.25;;;20.66;23.32
11343;BME280;5726;42.160;24.746;2023-02-21T16:30:59;99184.25;;;20.63;23.48
11343;BME280;5726;42.160;24.746;2023-02-21T16:33:26;99186.84;;;20.75;23.28
11343;BME280;5726;42.160;24.746;2023-02-21T16:35:51;99185.88;;;20.87;22.88
11343;BME280;5726;42.160;24.746;2023-02-21T16:38:19;99199.59;;;20.71;23.24
11343;BME280;5726;42.160;24.746;2023-02-21T16:40:46;99196.69;;;20.83;22.77
11343;BME280;5726;42.160;24.746;2023-02-21T16:43:19;99197.56;;;20.87;22.98
11343;BME280;5726;42.160;24.746;2023-02-21T16:45:46;99205.03;;;20.71;23.13